Pagina principale
METAR-TAF:

METAR-TAF

Aeroporti :

Aeroporto Internazionale di Chuuk

Weno, Micronesia

latitudine: 07-28N, longitudine: 151-51E, altezza: 3 m

Osservazione

Il bollettino è stato emesso 39 minuti fa, alle 12:52 UTC
Vento 6 kt da sud/sud-ovest
Temperature 29°C
Umidità 84%
Pressione 1011 hPa
Visibilità: 24.1 km
Poco nuvoloso ad un'altezza di 1400 ft
Nubi sparse ad un'altezza di 12000 ft
Cielo coperto ad un'altezza di 28000 ft

METAR: PTKK 191252Z 21006KT 15SM FEW014 SCT120 OVC280 29/26 A2984 RMK SLP108 T02890256

Ora: 23:31 (13:31 UTC)

Previsione

Il bollettino è stato emesso 2 ore e 3 minuti fa, alle 11:28 UTC
Previsione valida dal 19 alle 12 UTC al 20 alle 12 UTC
Vento 5 kt da sud-ovest
Visibilità: 10 km
Poco nuvoloso ad un'altezza di 1400 ft
Nubi sparse ad un'altezza di 12000 ft
rovesci nelle vicinanze

TAF: PTKK 191128Z 1912/2012 23005KT P6SM VCSH FEW014 SCT120

Osservazioni e previsioni meteorologiche di più di 4000 aeroporti (messaggi METAR e TAF).

Le stazioni disponibili sono rappresentate dai dischi gialli e rossi sulla carta.

Puntare il mouse per vedere il nome della stazione.

Clicca sopra per visualizzare le osservazioni e previsioni meteorologiche.

Per cambiare la mappa : fare clic sui pulsanti verdi con una croce nera per ingrandire, il pulsante verde con un trattino per diminuire, o sulla freccia verde per le mappe adiacenti.


METAR-TAF: